sensor_id;sensor_type;location;lat;lon;timestamp;P1;durP1;ratioP1;P2;durP2;ratioP2
27684;SDS011;46113;50.130;8.526;2023-02-28T05:02:45;2.80;;;1.45;;
27684;SDS011;46113;50.130;8.526;2023-02-28T05:05:11;3.63;;;1.30;;
27684;SDS011;46113;50.130;8.526;2023-02-28T05:07:44;2.55;;;0.73;;
27684;SDS011;46113;50.130;8.526;2023-02-28T05:10:14;2.03;;;1.42;;
27684;SDS011;46113;50.130;8.526;2023-02-28T05:12:40;1.40;;;1.15;;
27684;SDS011;46113;50.130;8.526;2023-02-28T05:15:08;1.73;;;1.33;;
27684;SDS011;46113;50.130;8.526;2023-02-28T05:17:38;4.90;;;1.88;;
27684;SDS011;46113;50.130;8.526;2023-02-28T05:20:05;3.75;;;1.88;;
27684;SDS011;46113;50.130;8.526;2023-02-28T05:22:41;1.35;;;0.88;;
27684;SDS011;46113;50.130;8.526;2023-02-28T05:25:12;1.42;;;1.27;;
27684;SDS011;46113;50.130;8.526;2023-02-28T05:27:48;1.00;;;0.90;;
27684;SDS011;46113;50.130;8.526;2023-02-28T05:30:15;1.70;;;1.08;;
27684;SDS011;46113;50.130;8.526;2023-02-28T05:32:42;4.63;;;1.10;;
27684;SDS011;46113;50.130;8.526;2023-02-28T05:35:09;1.00;;;0.90;;
27684;SDS011;46113;50.130;8.526;2023-02-28T05:37:37;2.70;;;1.27;;
27684;SDS011;46113;50.130;8.526;2023-02-28T05:40:06;1.38;;;1.00;;
27684;SDS011;46113;50.130;8.526;2023-02-28T05:42:36;1.80;;;1.60;;
27684;SDS011;46113;50.130;8.526;2023-02-28T05:45:36;1.23;;;0.80;;
27684;SDS011;46113;50.130;8.526;2023-02-28T05:48:34;1.80;;;1.00;;
27684;SDS011;46113;50.130;8.526;2023-02-28T05:51:02;1.55;;;1.20;;
27684;SDS011;46113;50.130;8.526;2023-02-28T05:53:30;1.83;;;1.10;;
27684;SDS011;46113;50.130;8.526;2023-02-28T05:56:03;3.13;;;1.52;;
27684;SDS011;46113;50.130;8.526;2023-02-28T05:58:30;1.80;;;1.35;;
27684;SDS011;46113;50.130;8.526;2023-02-28T06:01:01;1.13;;;1.02;;
27684;SDS011;46113;50.130;8.526;2023-02-28T06:03:50;2.03;;;1.00;;
27684;SDS011;46113;50.130;8.526;2023-02-28T06:06:19;1.02;;;0.85;;
27684;SDS011;46113;50.130;8.526;2023-02-28T06:08:46;6.88;;;1.35;;
27684;SDS011;46113;50.130;8.526;2023-02-28T06:11:15;0.90;;;0.90;;
27684;SDS011;46113;50.130;8.526;2023-02-28T06:13:42;1.10;;;0.90;;
27684;SDS011;46113;50.130;8.526;2023-02-28T06:16:11;1.15;;;0.93;;
27684;SDS011;46113;50.130;8.526;2023-02-28T06:18:38;2.25;;;1.20;;
27684;SDS011;46113;50.130;8.526;2023-02-28T06:21:05;1.13;;;1.02;;
27684;SDS011;46113;50.130;8.526;2023-02-28T06:23:32;2.38;;;1.05;;
27684;SDS011;46113;50.130;8.526;2023-02-28T06:25:59;2.72;;;1.40;;
27684;SDS011;46113;50.130;8.526;2023-02-28T06:28:26;0.63;;;0.63;;
27684;SDS011;46113;50.130;8.526;2023-02-28T06:30:53;1.48;;;0.90;;
27684;SDS011;46113;50.130;8.526;2023-02-28T06:33:20;2.72;;;1.48;;
27684;SDS011;46113;50.130;8.526;2023-02-28T06:35:47;3.05;;;0.93;;
27684;SDS011;46113;50.130;8.526;2023-02-28T06:38:17;2.60;;;1.15;;
27684;SDS011;46113;50.130;8.526;2023-02-28T06:40:44;4.32;;;0.75;;
27684;SDS011;46113;50.130;8.526;2023-02-28T06:43:27;0.85;;;0.65;;
27684;SDS011;46113;50.130;8.526;2023-02-28T06:49:25;2.10;;;0.68;;
27684;SDS011;46113;50.130;8.526;2023-02-28T06:51:52;1.58;;;0.73;;
27684;SDS011;46113;50.130;8.526;2023-02-28T06:54:18;2.95;;;1.13;;
27684;SDS011;46113;50.130;8.526;2023-02-28T06:56:45;1.15;;;0.70;;
27684;SDS011;46113;50.130;8.526;2023-02-28T06:59:13;0.82;;;0.82;;
27684;SDS011;46113;50.130;8.526;2023-02-28T11:34:23;2.95;;;2.53;;
27684;SDS011;46113;50.130;8.526;2023-02-28T11:36:57;3.90;;;2.47;;
27684;SDS011;46113;50.130;8.526;2023-02-28T11:39:26;3.38;;;2.33;;
27684;SDS011;46113;50.130;8.526;2023-02-28T11:41:57;3.78;;;2.83;;
27684;SDS011;46113;50.130;8.526;2023-02-28T11:47:17;2.95;;;2.65;;
27684;SDS011;46113;50.130;8.526;2023-02-28T11:52:52;5.47;;;2.80;;
27684;SDS011;46113;50.130;8.526;2023-02-28T11:57:58;4.57;;;2.83;;
27684;SDS011;46113;50.130;8.526;2023-02-28T12:00:38;3.72;;;2.92;;
27684;SDS011;46113;50.130;8.526;2023-02-28T12:14:19;4.78;;;2.97;;
27684;SDS011;46113;50.130;8.526;2023-02-28T12:17:11;6.47;;;2.85;;
27684;SDS011;46113;50.130;8.526;2023-02-28T12:19:59;5.90;;;2.67;;
27684;SDS011;46113;50.130;8.526;2023-02-28T12:22:30;5.18;;;2.58;;
27684;SDS011;46113;50.130;8.526;2023-02-28T12:27:37;5.00;;;2.75;;
27684;SDS011;46113;50.130;8.526;2023-02-28T12:30:21;5.28;;;2.90;;
27684;SDS011;46113;50.130;8.526;2023-02-28T12:32:57;6.55;;;3.53;;
27684;SDS011;46113;50.130;8.526;2023-02-28T12:35:34;3.75;;;2.33;;
27684;SDS011;46113;50.130;8.526;2023-02-28T12:38:14;5.45;;;2.65;;
27684;SDS011;46113;50.130;8.526;2023-02-28T12:40:49;4.63;;;2.95;;
27684;SDS011;46113;50.130;8.526;2023-02-28T12:43:21;2.53;;;2.13;;
27684;SDS011;46113;50.130;8.526;2023-02-28T12:46:14;4.22;;;2.70;;
27684;SDS011;46113;50.130;8.526;2023-02-28T12:49:19;4.18;;;2.83;;
27684;SDS011;46113;50.130;8.526;2023-02-28T12:51:51;4.03;;;2.90;;
27684;SDS011;46113;50.130;8.526;2023-02-28T12:54:24;2.75;;;2.28;;
27684;SDS011;46113;50.130;8.526;2023-02-28T12:59:41;5.03;;;2.40;;
27684;SDS011;46113;50.130;8.526;2023-02-28T13:02:33;3.88;;;2.97;;
27684;SDS011;46113;50.130;8.526;2023-02-28T13:11:00;2.83;;;2.47;;
27684;SDS011;46113;50.130;8.526;2023-02-28T13:13:38;4.47;;;2.95;;
27684;SDS011;46113;50.130;8.526;2023-02-28T13:16:11;4.55;;;2.50;;
27684;SDS011;46113;50.130;8.526;2023-02-28T13:18:44;4.72;;;2.45;;
27684;SDS011;46113;50.130;8.526;2023-02-28T13:21:23;4.30;;;2.50;;
27684;SDS011;46113;50.130;8.526;2023-02-28T13:26:24;5.35;;;2.83;;
27684;SDS011;46113;50.130;8.526;2023-02-28T13:34:32;6.20;;;2.60;;
27684;SDS011;46113;50.130;8.526;2023-02-28T13:40:26;6.13;;;3.33;;
27684;SDS011;46113;50.130;8.526;2023-02-28T13:43:03;6.60;;;3.63;;
27684;SDS011;46113;50.130;8.526;2023-02-28T13:45:35;7.32;;;3.50;;
27684;SDS011;46113;50.130;8.526;2023-02-28T13:48:15;4.25;;;3.38;;
27684;SDS011;46113;50.130;8.526;2023-02-28T13:50:44;7.20;;;3.42;;
27684;SDS011;46113;50.130;8.526;2023-02-28T13:53:19;6.35;;;3.15;;
27684;SDS011;46113;50.130;8.526;2023-02-28T13:56:19;3.60;;;2.83;;
27684;SDS011;46113;50.130;8.526;2023-02-28T13:59:03;4.68;;;3.10;;
27684;SDS011;46113;50.130;8.526;2023-02-28T14:04:45;4.88;;;3.55;;
27684;SDS011;46113;50.130;8.526;2023-02-28T14:07:30;6.68;;;3.70;;
27684;SDS011;46113;50.130;8.526;2023-02-28T14:10:06;6.22;;;3.20;;
27684;SDS011;46113;50.130;8.526;2023-02-28T14:18:23;4.88;;;3.20;;
27684;SDS011;46113;50.130;8.526;2023-02-28T14:21:01;5.85;;;3.90;;
27684;SDS011;46113;50.130;8.526;2023-02-28T14:34:53;3.97;;;2.80;;
27684;SDS011;46113;50.130;8.526;2023-02-28T14:37:38;3.95;;;2.90;;
27684;SDS011;46113;50.130;8.526;2023-02-28T14:40:16;6.88;;;3.13;;
27684;SDS011;46113;50.130;8.526;2023-02-28T14:42:55;7.63;;;3.45;;
27684;SDS011;46113;50.130;8.526;2023-02-28T14:45:24;4.35;;;2.95;;
27684;SDS011;46113;50.130;8.526;2023-02-28T14:47:51;4.35;;;2.47;;
27684;SDS011;46113;50.130;8.526;2023-02-28T14:50:36;6.13;;;2.92;;
27684;SDS011;46113;50.130;8.526;2023-02-28T14:53:03;3.55;;;2.92;;
27684;SDS011;46113;50.130;8.526;2023-02-28T14:55:43;6.03;;;3.08;;
27684;SDS011;46113;50.130;8.526;2023-02-28T14:58:19;6.43;;;3.20;;
27684;SDS011;46113;50.130;8.526;2023-02-28T15:00:49;4.93;;;3.08;;
27684;SDS011;46113;50.130;8.526;2023-02-28T15:03:21;6.75;;;2.70;;
27684;SDS011;46113;50.130;8.526;2023-02-28T15:05:55;6.28;;;3.65;;
27684;SDS011;46113;50.130;8.526;2023-02-28T15:08:27;3.42;;;2.80;;
27684;SDS011;46113;50.130;8.526;2023-02-28T15:11:16;5.07;;;3.40;;
27684;SDS011;46113;50.130;8.526;2023-02-28T15:13:49;4.93;;;3.40;;
27684;SDS011;46113;50.130;8.526;2023-02-28T15:19:05;5.30;;;3.13;;
27684;SDS011;46113;50.130;8.526;2023-02-28T15:21:34;3.35;;;2.92;;
27684;SDS011;46113;50.130;8.526;2023-02-28T15:24:04;4.07;;;2.50;;
27684;SDS011;46113;50.130;8.526;2023-02-28T15:26:33;7.90;;;3.58;;
27684;SDS011;46113;50.130;8.526;2023-02-28T15:29:10;3.67;;;2.50;;
27684;SDS011;46113;50.130;8.526;2023-02-28T15:31:58;5.78;;;3.13;;
27684;SDS011;46113;50.130;8.526;2023-02-28T15:40:28;3.63;;;2.47;;
27684;SDS011;46113;50.130;8.526;2023-02-28T15:43:12;5.18;;;3.10;;
27684;SDS011;46113;50.130;8.526;2023-02-28T15:50:43;3.80;;;2.60;;
27684;SDS011;46113;50.130;8.526;2023-02-28T15:53:14;4.10;;;3.03;;
27684;SDS011;46113;50.130;8.526;2023-02-28T15:55:43;3.22;;;2.10;;
27684;SDS011;46113;50.130;8.526;2023-02-28T15:58:14;4.32;;;2.50;;
27684;SDS011;46113;50.130;8.526;2023-02-28T16:00:44;4.22;;;2.55;;
27684;SDS011;46113;50.130;8.526;2023-02-28T16:03:33;3.92;;;2.88;;
27684;SDS011;46113;50.130;8.526;2023-02-28T16:08:57;3.78;;;2.63;;
27684;SDS011;46113;50.130;8.526;2023-02-28T16:11:26;5.68;;;3.63;;
27684;SDS011;46113;50.130;8.526;2023-02-28T16:13:53;6.32;;;3.85;;
27684;SDS011;46113;50.130;8.526;2023-02-28T16:16:21;7.78;;;3.70;;
27684;SDS011;46113;50.130;8.526;2023-02-28T16:18:50;5.97;;;3.85;;
27684;SDS011;46113;50.130;8.526;2023-02-28T16:21:17;12.10;;;6.68;;
27684;SDS011;46113;50.130;8.526;2023-02-28T16:23:44;6.50;;;4.40;;
27684;SDS011;46113;50.130;8.526;2023-02-28T16:26:15;4.10;;;2.90;;
27684;SDS011;46113;50.130;8.526;2023-02-28T16:28:46;3.65;;;2.88;;
27684;SDS011;46113;50.130;8.526;2023-02-28T16:31:13;3.00;;;2.17;;
27684;SDS011;46113;50.130;8.526;2023-02-28T16:33:43;3.22;;;2.30;;
27684;SDS011;46113;50.130;8.526;2023-02-28T16:36:17;3.45;;;2.47;;
27684;SDS011;46113;50.130;8.526;2023-02-28T16:38:45;4.22;;;2.80;;
27684;SDS011;46113;50.130;8.526;2023-02-28T16:41:13;6.28;;;2.75;;
27684;SDS011;46113;50.130;8.526;2023-02-28T16:43:46;3.20;;;2.25;;
27684;SDS011;46113;50.130;8.526;2023-02-28T16:46:14;3.70;;;2.38;;
27684;SDS011;46113;50.130;8.526;2023-02-28T16:48:43;3.38;;;2.38;;
27684;SDS011;46113;50.130;8.526;2023-02-28T16:51:11;2.25;;;2.05;;
27684;SDS011;46113;50.130;8.526;2023-02-28T16:53:39;4.45;;;2.40;;
27684;SDS011;46113;50.130;8.526;2023-02-28T16:56:06;3.58;;;2.47;;
27684;SDS011;46113;50.130;8.526;2023-02-28T16:58:41;6.18;;;2.63;;
27684;SDS011;46113;50.130;8.526;2023-02-28T17:01:08;4.03;;;2.67;;
27684;SDS011;46113;50.130;8.526;2023-02-28T17:03:35;4.10;;;2.53;;
27684;SDS011;46113;50.130;8.526;2023-02-28T17:06:03;4.18;;;2.10;;
27684;SDS011;46113;50.130;8.526;2023-02-28T17:08:31;3.65;;;2.33;;
27684;SDS011;46113;50.130;8.526;2023-02-28T17:10:59;5.93;;;2.33;;
27684;SDS011;46113;50.130;8.526;2023-02-28T17:13:27;4.95;;;2.65;;
27684;SDS011;46113;50.130;8.526;2023-02-28T17:15:53;3.10;;;2.20;;
27684;SDS011;46113;50.130;8.526;2023-02-28T17:18:21;4.35;;;1.95;;
27684;SDS011;46113;50.130;8.526;2023-02-28T17:20:48;5.18;;;2.60;;
27684;SDS011;46113;50.130;8.526;2023-02-28T17:23:15;2.90;;;2.15;;
27684;SDS011;46113;50.130;8.526;2023-02-28T17:25:42;2.72;;;2.08;;
27684;SDS011;46113;50.130;8.526;2023-02-28T17:28:22;2.90;;;2.08;;
27684;SDS011;46113;50.130;8.526;2023-02-28T17:30:49;4.18;;;1.77;;
27684;SDS011;46113;50.130;8.526;2023-02-28T17:33:16;3.28;;;2.15;;
27684;SDS011;46113;50.130;8.526;2023-02-28T17:35:43;4.35;;;2.15;;
27684;SDS011;46113;50.130;8.526;2023-02-28T17:38:17;3.38;;;2.53;;
27684;SDS011;46113;50.130;8.526;2023-02-28T17:40:45;4.43;;;2.47;;
27684;SDS011;46113;50.130;8.526;2023-02-28T17:43:13;6.13;;;2.03;;
27684;SDS011;46113;50.130;8.526;2023-02-28T17:45:41;4.07;;;2.63;;
27684;SDS011;46113;50.130;8.526;2023-02-28T17:48:09;5.80;;;2.00;;
27684;SDS011;46113;50.130;8.526;2023-02-28T17:50:37;3.67;;;2.55;;
27684;SDS011;46113;50.130;8.526;2023-02-28T17:53:03;8.27;;;3.55;;
27684;SDS011;46113;50.130;8.526;2023-02-28T17:55:30;10.85;;;3.47;;
27684;SDS011;46113;50.130;8.526;2023-02-28T17:57:57;10.18;;;5.38;;
27684;SDS011;46113;50.130;8.526;2023-02-28T18:00:23;4.60;;;3.08;;
27684;SDS011;46113;50.130;8.526;2023-02-28T18:02:50;7.05;;;4.07;;
27684;SDS011;46113;50.130;8.526;2023-02-28T18:05:17;6.53;;;3.63;;
27684;SDS011;46113;50.130;8.526;2023-02-28T18:07:44;6.10;;;2.72;;
27684;SDS011;46113;50.130;8.526;2023-02-28T18:10:20;6.53;;;3.35;;
27684;SDS011;46113;50.130;8.526;2023-02-28T18:12:47;11.57;;;4.07;;
27684;SDS011;46113;50.130;8.526;2023-02-28T18:15:17;8.07;;;4.28;;
27684;SDS011;46113;50.130;8.526;2023-02-28T18:17:46;5.55;;;2.88;;
27684;SDS011;46113;50.130;8.526;2023-02-28T18:20:14;6.97;;;3.47;;
27684;SDS011;46113;50.130;8.526;2023-02-28T18:22:40;7.97;;;3.88;;
27684;SDS011;46113;50.130;8.526;2023-02-28T18:25:09;4.95;;;3.53;;
27684;SDS011;46113;50.130;8.526;2023-02-28T18:27:39;6.28;;;3.40;;
27684;SDS011;46113;50.130;8.526;2023-02-28T18:30:27;6.72;;;2.35;;
27684;SDS011;46113;50.130;8.526;2023-02-28T18:33:07;3.72;;;2.50;;
27684;SDS011;46113;50.130;8.526;2023-02-28T18:35:56;77.03;;;24.13;;
27684;SDS011;46113;50.130;8.526;2023-02-28T18:38:23;74.43;;;26.65;;
27684;SDS011;46113;50.130;8.526;2023-02-28T18:40:56;77.65;;;28.35;;
27684;SDS011;46113;50.130;8.526;2023-02-28T18:43:28;62.58;;;22.92;;
27684;SDS011;46113;50.130;8.526;2023-02-28T18:45:56;18.00;;;7.80;;
27684;SDS011;46113;50.130;8.526;2023-02-28T18:48:23;10.05;;;4.95;;
27684;SDS011;46113;50.130;8.526;2023-02-28T18:50:50;5.20;;;3.30;;
27684;SDS011;46113;50.130;8.526;2023-02-28T18:53:17;5.78;;;3.95;;
27684;SDS011;46113;50.130;8.526;2023-02-28T18:55:44;12.50;;;4.30;;
27684;SDS011;46113;50.130;8.526;2023-02-28T18:58:11;8.13;;;2.72;;
27684;SDS011;46113;50.130;8.526;2023-02-28T19:00:38;4.60;;;3.08;;
27684;SDS011;46113;50.130;8.526;2023-02-28T19:03:04;4.63;;;3.00;;
27684;SDS011;46113;50.130;8.526;2023-02-28T19:05:31;7.22;;;2.90;;
27684;SDS011;46113;50.130;8.526;2023-02-28T19:08:00;6.80;;;3.75;;
27684;SDS011;46113;50.130;8.526;2023-02-28T19:10:27;5.53;;;2.97;;
27684;SDS011;46113;50.130;8.526;2023-02-28T19:12:54;7.18;;;3.22;;
27684;SDS011;46113;50.130;8.526;2023-02-28T19:15:20;4.28;;;3.03;;
27684;SDS011;46113;50.130;8.526;2023-02-28T19:17:47;7.15;;;3.95;;
27684;SDS011;46113;50.130;8.526;2023-02-28T19:20:14;6.00;;;3.05;;
27684;SDS011;46113;50.130;8.526;2023-02-28T19:22:41;5.80;;;3.40;;
27684;SDS011;46113;50.130;8.526;2023-02-28T19:25:09;5.80;;;4.25;;
27684;SDS011;46113;50.130;8.526;2023-02-28T19:27:36;6.13;;;3.38;;
27684;SDS011;46113;50.130;8.526;2023-02-28T19:30:03;15.80;;;4.75;;
27684;SDS011;46113;50.130;8.526;2023-02-28T19:32:34;4.60;;;3.45;;
27684;SDS011;46113;50.130;8.526;2023-02-28T19:35:01;5.53;;;3.33;;
27684;SDS011;46113;50.130;8.526;2023-02-28T19:37:28;10.60;;;4.82;;
27684;SDS011;46113;50.130;8.526;2023-02-28T19:39:54;8.18;;;4.40;;
27684;SDS011;46113;50.130;8.526;2023-02-28T19:42:22;10.40;;;5.40;;
27684;SDS011;46113;50.130;8.526;2023-02-28T19:44:48;5.53;;;4.57;;
27684;SDS011;46113;50.130;8.526;2023-02-28T19:47:15;6.65;;;3.33;;
27684;SDS011;46113;50.130;8.526;2023-02-28T19:49:42;7.07;;;4.15;;
27684;SDS011;46113;50.130;8.526;2023-02-28T19:52:08;8.55;;;4.43;;
27684;SDS011;46113;50.130;8.526;2023-02-28T19:54:40;6.20;;;3.65;;
27684;SDS011;46113;50.130;8.526;2023-02-28T19:57:07;6.45;;;3.85;;
27684;SDS011;46113;50.130;8.526;2023-02-28T19:59:33;4.95;;;3.22;;
27684;SDS011;46113;50.130;8.526;2023-02-28T20:26:05;9.38;;;4.53;;
27684;SDS011;46113;50.130;8.526;2023-02-28T20:28:33;8.60;;;4.20;;
27684;SDS011;46113;50.130;8.526;2023-02-28T20:30:59;6.85;;;3.25;;
27684;SDS011;46113;50.130;8.526;2023-02-28T20:33:26;7.68;;;3.42;;
27684;SDS011;46113;50.130;8.526;2023-02-28T20:36:02;4.63;;;3.15;;
27684;SDS011;46113;50.130;8.526;2023-02-28T20:38:30;3.50;;;2.80;;
27684;SDS011;46113;50.130;8.526;2023-02-28T20:40:57;5.15;;;2.88;;
27684;SDS011;46113;50.130;8.526;2023-02-28T20:43:24;4.82;;;2.92;;
27684;SDS011;46113;50.130;8.526;2023-02-28T20:45:53;5.45;;;2.80;;
27684;SDS011;46113;50.130;8.526;2023-02-28T20:48:23;8.48;;;3.33;;
27684;SDS011;46113;50.130;8.526;2023-02-28T20:50:51;7.05;;;2.75;;
27684;SDS011;46113;50.130;8.526;2023-02-28T20:53:20;5.53;;;3.33;;
27684;SDS011;46113;50.130;8.526;2023-02-28T20:58:25;9.10;;;3.53;;
27684;SDS011;46113;50.130;8.526;2023-02-28T21:01:01;7.30;;;2.90;;
27684;SDS011;46113;50.130;8.526;2023-02-28T21:03:47;4.38;;;2.75;;
27684;SDS011;46113;50.130;8.526;2023-02-28T21:06:15;5.88;;;3.17;;
27684;SDS011;46113;50.130;8.526;2023-02-28T21:08:43;4.28;;;3.08;;
27684;SDS011;46113;50.130;8.526;2023-02-28T21:11:15;6.65;;;3.20;;
27684;SDS011;46113;50.130;8.526;2023-02-28T21:13:44;5.82;;;2.65;;
27684;SDS011;46113;50.130;8.526;2023-02-28T21:16:13;4.78;;;3.00;;
27684;SDS011;46113;50.130;8.526;2023-02-28T21:18:41;4.57;;;3.28;;
27684;SDS011;46113;50.130;8.526;2023-02-28T21:21:11;6.47;;;3.63;;
27684;SDS011;46113;50.130;8.526;2023-02-28T21:26:13;7.40;;;3.78;;
27684;SDS011;46113;50.130;8.526;2023-02-28T21:28:50;4.70;;;2.95;;
27684;SDS011;46113;50.130;8.526;2023-02-28T21:31:21;9.07;;;3.67;;
27684;SDS011;46113;50.130;8.526;2023-02-28T21:33:51;5.95;;;2.75;;
27684;SDS011;46113;50.130;8.526;2023-02-28T21:36:20;5.65;;;3.22;;
27684;SDS011;46113;50.130;8.526;2023-02-28T21:38:53;7.05;;;3.70;;
27684;SDS011;46113;50.130;8.526;2023-02-28T21:41:21;5.07;;;3.05;;
